Home > Products > Valid Products > TAF

000
FTUS44 KOHX 211100
TAFBNA
TAF
KBNA 211126Z 2112/2212 21009KT P6SM SCT070 BKN250
     FM220000 23005KT P6SM VCSH OVC060
     FM220500 25005KT 6SM -SHRA SCT020 OVC035=



000
FTUS44 KOHX 211100
TAFCKV
TAF
KCKV 211126Z 2112/2212 21011KT P6SM SCT060 BKN250
     FM212200 24008KT P6SM VCSH BKN050
     FM220300 24004KT P6SM -SHRA OVC040
     FM220900 28008KT 5SM BR VCSH BKN025=



000
FTUS44 KOHX 211100
TAFCSV
TAF
KCSV 211126Z 2112/2212 VRB03KT P6SM SCT250
     FM211600 23008KT P6SM SCT060 BKN250
     FM220500 23005KT P6SM VCSH BKN040 OVC150
     FM220900 24005KT 5SM -RA BR BKN025 OVC050=



000
FTUS44 KOHX 210500
TAFBNA
TAF
KBNA 210529Z 2106/2206 VRB03KT P6SM SCT250
     FM211400 21008KT P6SM SCT060 BKN250
     FM220000 23004KT P6SM VCSH OVC060=



000
FTUS44 KOHX 210500
TAFCSV
TAF
KCSV 210529Z 2106/2206 00000KT P6SM SCT250
     FM211400 23007KT P6SM SCT060 BKN250
     FM212100 23005KT P6SM BKN050 OVC150=



000
FTUS44 KOHX 210500
TAFCKV
TAF
KCKV 210529Z 2106/2206 VRB03KT P6SM SCT250
     FM211400 22011KT P6SM SCT060 BKN250
     FM212200 23008KT P6SM VCSH BKN050
     FM220200 22004KT P6SM RA OVC040=



000
FTUS44 KOHX 202300
TAFBNA
TAF
KBNA 202325Z 2100/2124 VRB03KT P6SM SCT250
     FM211400 21008KT P6SM SCT060 BKN250=



000
FTUS44 KOHX 202300
TAFCSV
TAF
KCSV 202325Z 2100/2124 00000KT P6SM SCT250
     FM211400 23007KT P6SM SCT060 BKN250=



000
FTUS44 KOHX 202300
TAFCKV
TAF
KCKV 202325Z 2100/2124 VRB03KT P6SM SCT250
     FM211400 22010G18KT P6SM SCT060 BKN250=



000
FTUS44 KOHX 201700
TAFCKV
TAF
KCKV 201720Z 2018/2118 VRB04KT P6SM SKC
     FM210900 00000KT P6SM BKN150
     FM211400 24008KT P6SM SCT060 OVC150=



000
FTUS44 KOHX 201700
TAFCSV
TAF
KCSV 201720Z 2018/2118 VRB04KT P6SM SKC
     FM211400 00000KT P6SM SCT150
     FM211700 24006KT P6SM BKN150=



000
FTUS44 KOHX 201700
TAFBNA
TAF
KBNA 201720Z 2018/2118 VRB04KT P6SM SCT200
     FM211000 00000KT P6SM BKN150
     FM211500 21006KT P6SM SCT060 OVC150=



000
FTUS44 KOHX 201100
TAFBNA
TAF
KBNA 201123Z 2012/2112 18004KT P6SM SCT250=



000
FTUS44 KOHX 201100
TAFCKV
TAF
KCKV 201123Z 2012/2112 16004KT P6SM SCT250=



000
FTUS44 KOHX 201100
TAFCSV
TAF
KCSV 201123Z 2012/2112 00000KT P6SM BCFG SKC
      TEMPO 2012/2014 2SM BR
     FM201400 VRB04KT P6SM SCT250=



000
FTUS44 KOHX 200600 AAA
TAFCSV
TAF AMD
KCSV 200603Z 2006/2106 00000KT P6SM BCFG SKC
      TEMPO 2010/2014 1SM BR
     FM201400 09004KT P6SM SCT250=



000
FTUS44 KOHX 200500
TAFBNA
TAF
KBNA 200521Z 2006/2106 03005KT P6SM FEW150
     FM201500 09003KT P6SM SCT250=



000
FTUS44 KOHX 200500
TAFCKV
TAF
KCKV 200521Z 2006/2106 04003KT P6SM SKC
     FM201500 16003KT P6SM SCT250=



000
FTUS44 KOHX 200500
TAFCSV
TAF
KCSV 200521Z 2006/2106 00000KT P6SM SKC
     FM201400 09004KT P6SM SCT250=



000
FTUS44 KOHX 192300
TAFBNA
TAF
KBNA 192332Z 2000/2024 02009KT P6SM FEW150
     FM200100 04004KT P6SM SKC
     FM201500 08003KT P6SM SCT250=



000
FTUS44 KOHX 192300
TAFCSV
TAF
KCSV 192332Z 2000/2024 12007KT P6SM SKC
     FM200200 00000KT P6SM SKC
     FM201400 09004KT P6SM SCT250=



000
FTUS44 KOHX 192300
TAFCKV
TAF
KCKV 192332Z 2000/2024 06003KT P6SM SKC
     FM201500 16003KT P6SM SCT250=



000
FTUS44 KOHX 192000 AAA
TAFCSV
TAF AMD
KCSV 192006Z 1920/2018 02008G15KT P6SM BKN250
     FM200000 00000KT P6SM SKC=



000
FTUS44 KOHX 192000 AAA
TAFBNA
TAF AMD
KBNA 192005Z 1920/2018 04012G19KT P6SM SCT250
     FM200100 04004KT P6SM SKC=



000
FTUS44 KOHX 191700 AAA
TAFCKV
TAF AMD
KCKV 191758Z 1918/2018 04008G16KT P6SM SKC
     FM192200 06007KT P6SM SKC
     FM200100 00000KT P6SM SKC=



000
FTUS44 KOHX 191700
TAFCKV
TAF
KCKV 191720Z 1918/2018 08008G16KT P6SM SKC
     FM192200 06007KT P6SM SKC
     FM200100 00000KT P6SM SKC=



000
FTUS44 KOHX 191700
TAFBNA
TAF
KBNA 191720Z 1918/2018 06014G21KT P6SM SCT250
     FM200100 04004KT P6SM SKC=



000
FTUS44 KOHX 191700
TAFCSV
TAF
KCSV 191720Z 1918/2018 05010G18KT P6SM BKN250
     FM200000 00000KT P6SM SKC=



000
FTUS44 KOHX 191100
TAFBNA
TAF
KBNA 191121Z 1912/2012 03006KT P6SM SCT250
     FM191500 03012G20KT P6SM SCT250
     FM201000 04004KT P6SM SKC=



000
FTUS44 KOHX 191100
TAFCSV
TAF
KCSV 191121Z 1912/2012 03007KT P6SM BKN250
     FM191400 05010G18KT P6SM SCT050 BKN250
     FM200000 00000KT P6SM SKC=



000
FTUS44 KOHX 191100
TAFCKV
TAF
KCKV 191121Z 1912/2012 04005KT P6SM SCT250
     FM191500 05008G16KT P6SM FEW250
     FM200000 04003KT P6SM SKC=



000
FTUS44 KOHX 190500
TAFCSV
TAF
KCSV 190529Z 1906/2006 00000KT P6SM BKN250
     FM191400 04010G18KT P6SM SCT050 BKN250
     FM200000 05005KT P6SM SKC=



000
FTUS44 KOHX 190500
TAFCKV
TAF
KCKV 190529Z 1906/2006 02004KT P6SM BKN250
     FM191400 05010G20KT P6SM SCT050
     FM192300 04006KT P6SM SKC=



000
FTUS44 KOHX 190500
TAFBNA
TAF
KBNA 190529Z 1906/2006 36004KT P6SM BKN250
     FM191400 03012G20KT P6SM SCT050
     FM200000 03008KT P6SM SKC=



000
FTUS44 KOHX 182300
TAFBNA
TAF
KBNA 182321Z 1900/1924 06006KT P6SM FEW150 OVC250
     FM190400 36005KT P6SM SCT250
     FM191400 03012G20KT P6SM SCT050=



000
FTUS44 KOHX 182300
TAFCSV
TAF
KCSV 182321Z 1900/1924 07004KT P6SM SCT050 OVC250
     FM190500 01005KT P6SM BKN250
     FM191400 04010G18KT P6SM SCT050 BKN250=



000
FTUS44 KOHX 182300
TAFCKV
TAF
KCKV 182321Z 1900/1924 06005KT P6SM BKN060 OVC080
     FM190600 36005KT P6SM SCT250
     FM191400 05011G20KT P6SM SCT050=



000
FTUS44 KOHX 181700
TAFBNA
TAF
KBNA 181722Z 1818/1918 15005KT P6SM BKN060
     FM190000 04007KT P6SM SCT050 SCT250
     FM190600 36005KT P6SM FEW250
     FM191400 03013KT P6SM SKC=



000
FTUS44 KOHX 181700
TAFCSV
TAF
KCSV 181722Z 1818/1918 04005KT P6SM BKN045
     FM190100 02005KT P6SM SCT050 BKN200
     FM190500 01005KT P6SM SCT250
     FM191400 04011KT P6SM SKC=



000
FTUS44 KOHX 181700
TAFCKV
TAF
KCKV 181722Z 1818/1918 16006KT P6SM SCT050 BKN130
     FM182200 04006KT P6SM SCT050 SCT250
     FM190600 02005KT P6SM SKC
     FM191400 04011KT P6SM SKC=



    US Dept of Commerce
    National Oceanic and Atmospheric Administration
    National Weather Service
    1325 East West Highway
    Silver Spring, MD 20910
    Page Author: NWS Internet Services Team
Disclaimer
Information Quality
Credits
Glossary
Privacy Policy
Freedom of Information Act (FOIA)
About Us
Career Opportunities